Date,TemperatureHighF,TemperatureAvgF,TemperatureLowF,DewpointHighF,DewpointAvgF,DewpointLowF,HumidityHigh,HumidityAvg,HumidityLow,PressureMaxIn,PressureMinIn,WindSpeedMaxMPH,WindSpeedAvgMPH,GustSpeedMaxMPH,PrecipitationSumIn
2013-4-1,60,43,31,45,35,16,98,76,47,29.83,29.54,13,1,0,0.44
2013-4-2,40,32,26,19,15,11,65,51,35,29.98,29.84,10,1,0,0.00
2013-4-3,46,34,26,17,15,13,61,47,28,30.20,29.97,5,1,0,0.00
2013-4-4,54,40,24,24,18,15,74,45,24,30.34,30.07,5,1,0,0.00
2013-4-5,62,45,36,29,26,22,70,50,23,30.07,29.69,6,1,0,0.00
2013-4-6,46,35,25,26,13,8,70,43,24,30.38,29.93,10,1,0,0.00
2013-4-7,56,40,21,39,24,11,81,56,30,30.37,30.02,7,2,0,0.00
2013-4-8,66,50,38,42,38,33,95,67,33,30.12,29.99,4,0,0,0.00
2013-4-9,70,52,43,52,44,37,96,74,45,30.10,29.91,3,0,0,0.02
2013-4-10,61,51,45,52,47,43,97,88,69,30.05,29.89,4,0,0,0.57
2013-4-11,52,45,38,48,38,28,97,79,49,30.19,29.88,3,0,0,0.08
2013-4-12,38,35,33,36,34,32,97,95,88,30.21,29.87,2,0,0,0.68
2013-4-13,52,42,33,43,37,33,98,83,57,29.98,29.83,3,0,0,0.14
2013-4-14,53,42,29,39,33,26,94,71,46,30.26,29.96,4,0,0,0.00
2013-4-15,57,42,25,37,31,24,97,71,41,30.43,30.27,5,0,0,0.00
2013-4-16,68,49,30,52,41,28,96,76,45,30.43,30.09,10,2,0,0.02
2013-4-17,68,56,40,53,38,30,85,55,28,30.37,30.09,4,0,0,0.00
2013-4-18,64,49,29,45,33,27,93,59,34,30.48,30.17,9,1,0,0.00
2013-4-19,74,63,52,62,57,45,96,81,60,30.18,29.65,13,2,0,0.00
2013-4-20,67,50,40,63,41,24,96,73,45,30.26,29.63,5,0,0,0.48
2013-4-21,55,40,27,28,23,20,81,53,29,30.72,30.28,3,0,0,0.00
2013-4-22,54,39,25,33,27,22,93,66,33,30.80,30.65,10,1,0,0.00
2013-4-23,40,37,32,39,35,29,96,91,80,30.65,30.20,2,0,0,0.01
2013-4-24,76,57,40,53,44,38,97,68,27,30.17,29.80,11,1,0,0.00
2013-4-25,64,53,36,51,37,26,93,59,28,30.31,29.83,12,1,0,0.07
2013-4-26,63,46,28,37,32,25,92,61,32,30.47,30.32,5,0,0,0.00
2013-4-27,66,50,30,43,35,28,97,63,34,30.47,30.31,6,0,0,0.00
2013-4-28,71,53,32,43,36,31,96,59,30,30.38,30.22,16,1,0,0.00
2013-4-29,70,56,40,48,37,26,84,53,33,30.29,30.20,7,1,0,0.00
2013-4-30,71,56,41,38,31,25,77,42,22,30.39,30.28,5,1,0,0.00